Time;durP1;ratioP1;P1;durP2;ratioP2;P2;SDS_P1;SDS_P2;PMS_P1;PMS_P2;Temp;Humidity;BMP_temperature;BMP_pressure;BME280_temperature;BME280_humidity;BME280_pressure;Samples;Min_cycle;Max_cycle;Signal;HPM_P1;HPM_P2
2022/05/31 00:01:51;;;;;;;8.40;5.35;;;;;;;;;;5069178;28;20035;-73
2022/05/31 00:04:17;;;;;;;10.20;4.68;;;;;;;;;;5068780;28;20036;-72
2022/05/31 00:06:44;;;;;;;7.32;4.50;;;;;;;;;;5070154;28;20444;-73
2022/05/31 00:09:09;;;;;;;7.15;4.78;;;;;;;;;;5069332;28;20036;-73
2022/05/31 00:11:36;;;;;;;5.47;4.40;;;;;;;;;;5070341;28;20034;-73
2022/05/31 00:14:03;;;;;;;6.40;4.50;;;;;;;;;;5068773;28;20030;-76
2022/05/31 00:16:28;;;;;;;6.13;4.47;;;;;;;;;;5070485;28;20025;-73
2022/05/31 00:18:54;;;;;;;7.97;5.10;;;;;;;;;;5069943;28;20422;-75
2022/05/31 00:21:19;;;;;;;5.72;4.60;;;;;;;;;;5070090;28;20020;-72
2022/05/31 00:23:44;;;;;;;6.50;4.65;;;;;;;;;;5069081;28;20086;-73
2022/05/31 00:26:10;;;;;;;8.05;4.85;;;;;;;;;;5070100;28;20470;-74
2022/05/31 00:28:35;;;;;;;5.95;4.82;;;;;;;;;;5070151;28;20094;-72
2022/05/31 00:31:02;;;;;;;6.07;4.60;;;;;;;;;;5069163;28;20119;-74
2022/05/31 00:33:28;;;;;;;6.47;4.88;;;;;;;;;;5070327;28;20108;-72
2022/05/31 00:35:53;;;;;;;7.07;4.75;;;;;;;;;;5070067;28;20103;-72
2022/05/31 00:38:20;;;;;;;5.75;4.55;;;;;;;;;;5068590;28;20040;-73
2022/05/31 00:40:46;;;;;;;6.55;4.82;;;;;;;;;;5069211;28;20032;-73
2022/05/31 00:43:18;;;;;;;5.97;4.38;;;;;;;;;;5068215;28;20032;-73
2022/05/31 00:45:59;;;;;;;7.10;4.90;;;;;;;;;;5051709;28;20032;-72
2022/05/31 00:48:30;;;;;;;7.53;5.35;;;;;;;;;;5069711;28;20039;-74
2022/05/31 00:51:01;;;;;;;7.97;4.70;;;;;;;;;;5068592;28;20544;-74
2022/05/31 00:53:32;;;;;;;6.57;4.75;;;;;;;;;;5068723;28;20040;-74
2022/05/31 00:56:00;;;;;;;5.22;4.38;;;;;;;;;;5069804;28;20479;-73
2022/05/31 00:58:33;;;;;;;7.88;4.38;;;;;;;;;;5069231;28;20032;-73
2022/05/31 01:01:02;;;;;;;7.68;5.22;;;;;;;;;;5068529;28;20221;-72
2022/05/31 01:03:28;;;;;;;6.97;4.75;;;;;;;;;;5068509;28;20517;-73
2022/05/31 01:05:54;;;;;;;6.18;4.65;;;;;;;;;;5067990;28;20037;-74
2022/05/31 01:08:19;;;;;;;8.73;5.20;;;;;;;;;;5068921;28;20037;-73
2022/05/31 01:10:45;;;;;;;6.43;4.85;;;;;;;;;;5068452;28;20028;-74
2022/05/31 01:13:15;;;;;;;6.88;5.20;;;;;;;;;;5068093;28;20024;-73
2022/05/31 01:15:42;;;;;;;6.20;4.50;;;;;;;;;;5069128;28;20020;-73
2022/05/31 01:18:07;;;;;;;6.90;4.90;;;;;;;;;;5067699;28;20024;-73
2022/05/31 01:20:33;;;;;;;6.45;4.75;;;;;;;;;;5068425;28;20081;-73
2022/05/31 01:23:05;;;;;;;5.32;4.30;;;;;;;;;;5068832;28;20036;-75
2022/05/31 01:26:08;;;;;;;7.32;4.45;;;;;;;;;;5069219;28;20104;-72
2022/05/31 01:28:37;;;;;;;7.22;4.40;;;;;;;;;;5067093;28;20036;-72
2022/05/31 01:31:21;;;;;;;6.97;4.15;;;;;;;;;;5069031;28;20034;-72
2022/05/31 01:33:53;;;;;;;6.72;4.32;;;;;;;;;;5066923;28;20028;-73
2022/05/31 01:36:25;;;;;;;5.32;4.32;;;;;;;;;;5067131;28;20031;-73
2022/05/31 01:38:59;;;;;;;6.72;4.30;;;;;;;;;;5068499;28;20139;-74
2022/05/31 01:41:43;;;;;;;6.60;4.68;;;;;;;;;;5067362;28;20029;-73
2022/05/31 01:44:13;;;;;;;6.07;4.18;;;;;;;;;;5062165;28;20115;-75
2022/05/31 01:46:38;;;;;;;4.45;3.75;;;;;;;;;;5067829;28;20064;-73
2022/05/31 01:49:07;;;;;;;5.72;3.95;;;;;;;;;;5068080;28;20398;-72
2022/05/31 01:51:35;;;;;;;6.20;4.30;;;;;;;;;;5068751;28;20154;-74
2022/05/31 01:54:02;;;;;;;6.00;4.30;;;;;;;;;;5057353;28;20026;-73
2022/05/31 01:56:29;;;;;;;4.65;4.00;;;;;;;;;;5069049;28;20016;-74
2022/05/31 01:58:55;;;;;;;5.65;4.13;;;;;;;;;;5067584;28;20150;-73
2022/05/31 02:01:21;;;;;;;5.53;3.97;;;;;;;;;;5066541;28;20564;-73
2022/05/31 02:03:47;;;;;;;7.75;4.32;;;;;;;;;;5068663;28;20024;-73
2022/05/31 02:06:33;;;;;;;6.68;4.30;;;;;;;;;;5068430;28;20031;-75
2022/05/31 02:08:59;;;;;;;6.10;4.47;;;;;;;;;;5067704;28;20047;-73
2022/05/31 02:11:26;;;;;;;5.60;4.03;;;;;;;;;;5067119;28;20052;-76
2022/05/31 02:13:52;;;;;;;5.72;4.30;;;;;;;;;;5067193;28;20405;-75
2022/05/31 02:16:17;;;;;;;6.55;4.18;;;;;;;;;;5068210;28;20029;-73
2022/05/31 02:21:35;;;;;;;5.60;4.25;;;;;;;;;;5066899;28;20089;-74
2022/05/31 02:24:04;;;;;;;5.47;4.20;;;;;;;;;;5069053;28;20031;-74
2022/05/31 02:26:30;;;;;;;5.97;3.90;;;;;;;;;;5068576;28;20025;-75
2022/05/31 02:28:55;;;;;;;5.30;4.07;;;;;;;;;;5068485;28;20070;-74
2022/05/31 02:31:20;;;;;;;4.90;4.07;;;;;;;;;;5066677;28;20032;-73
2022/05/31 02:33:45;;;;;;;5.80;4.20;;;;;;;;;;5067377;28;20054;-74
2022/05/31 02:36:11;;;;;;;6.97;4.30;;;;;;;;;;5069074;28;20020;-74
2022/05/31 02:38:36;;;;;;;5.28;4.40;;;;;;;;;;5067168;28;20033;-74
2022/05/31 02:41:01;;;;;;;5.68;4.32;;;;;;;;;;5067333;28;20025;-73
2022/05/31 02:43:27;;;;;;;6.20;4.38;;;;;;;;;;5067055;28;20423;-74
2022/05/31 02:45:52;;;;;;;8.18;4.57;;;;;;;;;;5068000;28;20085;-73
2022/05/31 02:48:17;;;;;;;6.82;4.75;;;;;;;;;;5066886;28;20478;-74
2022/05/31 02:50:43;;;;;;;5.60;3.90;;;;;;;;;;5067668;28;20038;-75
2022/05/31 02:53:08;;;;;;;7.22;4.38;;;;;;;;;;5058868;28;20253;-72
2022/05/31 02:55:33;;;;;;;7.90;4.40;;;;;;;;;;5068579;28;20084;-74
2022/05/31 02:57:59;;;;;;;7.88;4.40;;;;;;;;;;5068852;28;20051;-73
2022/05/31 03:00:24;;;;;;;5.78;4.32;;;;;;;;;;5051559;28;20024;-72
2022/05/31 03:02:49;;;;;;;4.43;3.85;;;;;;;;;;5073719;28;20032;-74
2022/05/31 03:05:15;;;;;;;7.43;4.65;;;;;;;;;;5072239;28;20394;-74
2022/05/31 03:07:40;;;;;;;7.30;4.28;;;;;;;;;;5057251;28;20024;-74
2022/05/31 03:10:05;;;;;;;5.20;4.03;;;;;;;;;;5071530;28;20141;-74
2022/05/31 03:12:33;;;;;;;5.75;4.10;;;;;;;;;;5072851;28;20024;-75
2022/05/31 03:15:03;;;;;;;5.43;4.03;;;;;;;;;;5069247;28;20108;-74
2022/05/31 03:17:35;;;;;;;7.25;4.60;;;;;;;;;;5071517;28;20029;-73
2022/05/31 03:20:09;;;;;;;5.80;4.47;;;;;;;;;;5072487;28;20044;-74
2022/05/31 03:22:43;;;;;;;7.32;4.22;;;;;;;;;;5075084;28;20440;-72
2022/05/31 03:25:17;;;;;;;7.95;5.15;;;;;;;;;;5072043;28;20036;-73
2022/05/31 03:27:44;;;;;;;6.85;4.10;;;;;;;;;;5070399;28;20024;-74
2022/05/31 03:30:10;;;;;;;6.28;4.22;;;;;;;;;;5073111;28;20032;-74
2022/05/31 03:32:36;;;;;;;4.93;4.00;;;;;;;;;;5073217;28;20028;-74
2022/05/31 03:35:02;;;;;;;5.75;3.83;;;;;;;;;;5069112;28;20056;-74
2022/05/31 03:37:27;;;;;;;5.72;4.45;;;;;;;;;;5071559;28;20130;-74
2022/05/31 03:39:52;;;;;;;8.10;4.22;;;;;;;;;;5070443;28;20035;-73
2022/05/31 03:42:18;;;;;;;5.40;3.97;;;;;;;;;;5069629;28;20024;-74
2022/05/31 03:44:43;;;;;;;5.75;4.00;;;;;;;;;;5069775;28;20025;-74
2022/05/31 03:47:08;;;;;;;4.88;4.13;;;;;;;;;;5071309;28;20033;-75
2022/05/31 03:49:34;;;;;;;8.23;4.30;;;;;;;;;;5071296;28;20385;-74
2022/05/31 03:51:59;;;;;;;4.90;3.58;;;;;;;;;;5053429;28;20025;-73
2022/05/31 03:54:26;;;;;;;5.05;4.15;;;;;;;;;;5071098;28;20486;-77
2022/05/31 03:56:51;;;;;;;5.25;3.83;;;;;;;;;;5072067;28;20048;-73
2022/05/31 03:59:17;;;;;;;6.30;3.83;;;;;;;;;;5072632;28;20106;-73
2022/05/31 04:01:42;;;;;;;5.60;4.20;;;;;;;;;;5071517;28;20032;-73
2022/05/31 04:04:08;;;;;;;7.35;4.75;;;;;;;;;;5071597;28;20078;-75
2022/05/31 04:06:35;;;;;;;6.22;4.30;;;;;;;;;;5069752;28;20024;-74
2022/05/31 04:09:01;;;;;;;5.20;3.85;;;;;;;;;;5069393;28;20027;-73
2022/05/31 04:11:27;;;;;;;6.10;4.32;;;;;;;;;;5070237;28;20017;-73
2022/05/31 04:13:53;;;;;;;5.95;4.13;;;;;;;;;;5070376;28;20074;-73
2022/05/31 04:16:19;;;;;;;5.60;5.00;;;;;;;;;;5068380;28;20025;-73
2022/05/31 04:18:46;;;;;;;7.03;4.50;;;;;;;;;;5069614;28;20054;-73
2022/05/31 04:21:16;;;;;;;8.27;4.78;;;;;;;;;;5070557;28;20063;-74
2022/05/31 04:23:58;;;;;;;5.60;4.60;;;;;;;;;;5069369;28;20082;-73
2022/05/31 04:26:27;;;;;;;8.05;4.53;;;;;;;;;;5069655;28;20538;-74
2022/05/31 04:28:52;;;;;;;5.07;4.03;;;;;;;;;;5070476;28;20032;-74
2022/05/31 04:31:18;;;;;;;7.40;4.70;;;;;;;;;;5069209;28;20766;-74
2022/05/31 04:33:43;;;;;;;7.22;4.45;;;;;;;;;;5070516;28;20025;-73
2022/05/31 04:36:12;;;;;;;6.95;4.38;;;;;;;;;;5068063;28;20569;-72
2022/05/31 04:38:38;;;;;;;6.15;3.97;;;;;;;;;;5068940;28;20029;-74
2022/05/31 04:41:04;;;;;;;5.75;4.35;;;;;;;;;;5069443;28;20024;-73
2022/05/31 04:43:30;;;;;;;8.43;4.60;;;;;;;;;;5069769;28;20055;-73
2022/05/31 04:45:55;;;;;;;6.97;4.07;;;;;;;;;;5068845;28;20029;-73
2022/05/31 04:48:20;;;;;;;6.65;4.20;;;;;;;;;;5068042;28;20609;-74
2022/05/31 04:50:46;;;;;;;6.43;4.47;;;;;;;;;;5073112;28;20028;-73
2022/05/31 04:53:11;;;;;;;6.32;4.30;;;;;;;;;;5069582;28;20107;-72
2022/05/31 04:55:37;;;;;;;7.22;4.97;;;;;;;;;;5068025;28;20028;-73
2022/05/31 04:58:02;;;;;;;5.88;4.35;;;;;;;;;;5060989;28;20478;-74
2022/05/31 05:00:29;;;;;;;5.75;4.25;;;;;;;;;;5069269;28;20464;-73
2022/05/31 05:02:54;;;;;;;5.97;4.18;;;;;;;;;;5068233;28;20038;-73
2022/05/31 05:05:19;;;;;;;5.05;3.97;;;;;;;;;;5068507;28;20028;-74
2022/05/31 05:07:45;;;;;;;4.18;3.33;;;;;;;;;;5066988;28;20761;-74
2022/05/31 05:10:10;;;;;;;5.47;3.75;;;;;;;;;;5064656;28;20059;-73
2022/05/31 05:12:36;;;;;;;4.65;3.65;;;;;;;;;;5066226;28;20021;-74
2022/05/31 05:15:02;;;;;;;5.38;3.38;;;;;;;;;;5065368;28;20029;-72
2022/05/31 05:17:27;;;;;;;6.28;3.80;;;;;;;;;;5065811;28;20028;-73
2022/05/31 05:19:53;;;;;;;5.28;3.67;;;;;;;;;;5065494;28;20467;-73
2022/05/31 05:22:18;;;;;;;7.78;3.92;;;;;;;;;;5064967;28;20028;-73
2022/05/31 05:24:43;;;;;;;7.22;3.95;;;;;;;;;;5064439;28;20028;-74
2022/05/31 05:27:08;;;;;;;6.10;3.92;;;;;;;;;;5066757;28;20056;-74
2022/05/31 05:32:18;;;;;;;5.38;4.20;;;;;;;;;;5063896;28;20406;-74
2022/05/31 05:34:43;;;;;;;5.50;3.63;;;;;;;;;;5062086;28;20302;-71
2022/05/31 05:37:08;;;;;;;5.53;3.58;;;;;;;;;;5065027;28;20443;-74
2022/05/31 05:39:34;;;;;;;5.72;3.33;;;;;;;;;;5061798;28;20056;-74
2022/05/31 05:41:59;;;;;;;4.95;3.70;;;;;;;;;;5062614;28;20054;-73
2022/05/31 05:44:26;;;;;;;6.53;3.65;;;;;;;;;;5063503;28;20037;-75
2022/05/31 05:46:51;;;;;;;5.88;3.67;;;;;;;;;;5045544;28;20029;-71
2022/05/31 05:49:17;;;;;;;4.53;3.28;;;;;;;;;;5053674;28;20071;-73
2022/05/31 05:51:45;;;;;;;4.47;3.13;;;;;;;;;;5045058;28;20025;-72
2022/05/31 05:54:10;;;;;;;4.80;3.10;;;;;;;;;;5056866;28;20169;-71
2022/05/31 05:56:35;;;;;;;5.85;3.70;;;;;;;;;;5063583;28;20235;-71
2022/05/31 05:59:01;;;;;;;5.32;3.60;;;;;;;;;;5064804;28;20051;-73
2022/05/31 06:01:47;;;;;;;16.00;9.95;;;;;;;;;;5061455;28;20490;-73
2022/05/31 06:04:14;;;;;;;5.55;3.30;;;;;;;;;;5061228;28;20025;-73
2022/05/31 06:06:42;;;;;;;4.47;2.75;;;;;;;;;;5068171;28;20119;-73
2022/05/31 06:09:15;;;;;;;4.30;2.63;;;;;;;;;;5069272;28;20387;-71
2022/05/31 06:11:40;;;;;;;5.45;2.63;;;;;;;;;;5068005;28;20043;-71
2022/05/31 06:14:11;;;;;;;5.93;3.53;;;;;;;;;;5067014;28;20020;-76
2022/05/31 06:16:44;;;;;;;9.30;4.03;;;;;;;;;;5070261;28;20378;-74
2022/05/31 06:19:14;;;;;;;5.93;3.40;;;;;;;;;;5062462;28;20040;-71
2022/05/31 06:21:39;;;;;;;5.60;3.33;;;;;;;;;;5066038;28;20025;-70
2022/05/31 06:24:05;;;;;;;4.55;3.00;;;;;;;;;;5062706;28;20324;-73
2022/05/31 06:26:32;;;;;;;5.57;3.13;;;;;;;;;;5063721;28;20426;-73
2022/05/31 06:28:57;;;;;;;5.32;3.42;;;;;;;;;;5061138;28;20033;-73
2022/05/31 06:31:22;;;;;;;4.30;3.22;;;;;;;;;;5065020;28;20116;-74
2022/05/31 06:33:48;;;;;;;4.18;3.10;;;;;;;;;;5061059;28;20482;-73
2022/05/31 06:36:14;;;;;;;7.55;3.40;;;;;;;;;;5063958;28;20186;-74
2022/05/31 06:38:40;;;;;;;4.88;3.10;;;;;;;;;;5060505;28;20032;-73
2022/05/31 06:41:06;;;;;;;3.78;3.10;;;;;;;;;;5064488;28;20491;-71
2022/05/31 06:43:31;;;;;;;5.15;3.13;;;;;;;;;;5061580;28;20070;-73
2022/05/31 06:45:57;;;;;;;3.10;2.80;;;;;;;;;;5059119;28;20650;-73
2022/05/31 06:48:22;;;;;;;5.07;2.90;;;;;;;;;;5065960;28;20029;-73
2022/05/31 06:50:47;;;;;;;7.20;3.22;;;;;;;;;;5060137;28;20542;-73
2022/05/31 06:58:44;;;;;;;6.57;3.13;;;;;;;;;;5067400;28;20501;-73
2022/05/31 07:01:09;;;;;;;3.42;2.78;;;;;;;;;;5061620;28;20036;-72
2022/05/31 07:03:36;;;;;;;4.15;2.80;;;;;;;;;;5062083;28;20316;-73
2022/05/31 07:06:01;;;;;;;4.30;2.47;;;;;;;;;;5062301;28;20028;-73
2022/05/31 07:08:27;;;;;;;4.63;2.78;;;;;;;;;;5049884;28;20028;-73
2022/05/31 07:10:52;;;;;;;3.47;2.70;;;;;;;;;;5066391;28;20032;-72
2022/05/31 07:13:18;;;;;;;4.70;2.92;;;;;;;;;;5064670;28;20464;-73
2022/05/31 07:15:43;;;;;;;3.33;2.60;;;;;;;;;;5067206;28;20032;-71
2022/05/31 07:18:09;;;;;;;5.20;2.55;;;;;;;;;;5071686;28;20202;-73
2022/05/31 07:20:34;;;;;;;5.15;2.80;;;;;;;;;;5068732;28;20090;-73
2022/05/31 07:22:59;;;;;;;3.63;2.75;;;;;;;;;;5051747;28;20070;-73
2022/05/31 07:25:25;;;;;;;5.43;2.55;;;;;;;;;;5068400;28;20614;-73
2022/05/31 07:27:50;;;;;;;4.65;2.60;;;;;;;;;;5066118;28;20494;-72
2022/05/31 07:30:16;;;;;;;13.00;7.97;;;;;;;;;;5068831;28;20044;-74
2022/05/31 07:32:42;;;;;;;21.25;10.18;;;;;;;;;;5066979;28;20075;-73
2022/05/31 07:35:07;;;;;;;10.93;5.75;;;;;;;;;;5068315;28;20040;-70
2022/05/31 07:37:33;;;;;;;5.75;3.17;;;;;;;;;;5078264;28;20390;-73
2022/05/31 07:39:58;;;;;;;2.30;2.10;;;;;;;;;;5066679;28;20561;-74
2022/05/31 07:42:23;;;;;;;2.95;1.98;;;;;;;;;;5064768;28;20028;-72
2022/05/31 07:44:53;;;;;;;4.28;2.33;;;;;;;;;;5065933;28;20040;-73
2022/05/31 07:47:18;;;;;;;2.65;2.10;;;;;;;;;;5039819;28;20124;-72
2022/05/31 07:49:43;;;;;;;3.58;2.28;;;;;;;;;;5066390;28;20553;-72
2022/05/31 07:52:09;;;;;;;3.33;2.35;;;;;;;;;;5065301;28;20348;-74
2022/05/31 07:54:35;;;;;;;3.08;1.98;;;;;;;;;;5064416;28;20544;-73
2022/05/31 07:57:05;;;;;;;3.75;2.00;;;;;;;;;;5065135;28;20111;-73
2022/05/31 07:59:31;;;;;;;3.13;1.70;;;;;;;;;;5067158;28;20032;-72
2022/05/31 08:01:57;;;;;;;1.90;1.75;;;;;;;;;;5068194;28;20369;-74
2022/05/31 08:04:22;;;;;;;3.30;1.80;;;;;;;;;;5067610;28;20032;-73
2022/05/31 08:06:48;;;;;;;8.65;5.90;;;;;;;;;;5067417;28;20021;-73
2022/05/31 08:09:13;;;;;;;3.13;2.50;;;;;;;;;;5068799;28;20086;-72
2022/05/31 08:11:38;;;;;;;1.40;1.30;;;;;;;;;;5052496;28;20040;-73
2022/05/31 08:14:04;;;;;;;2.22;1.30;;;;;;;;;;5067367;28;20016;-72
2022/05/31 08:16:30;;;;;;;1.67;1.25;;;;;;;;;;5066355;28;20021;-73
2022/05/31 08:18:56;;;;;;;2.35;1.23;;;;;;;;;;5067573;28;20347;-72
2022/05/31 08:21:28;;;;;;;3.17;1.58;;;;;;;;;;5052908;28;20466;-71
2022/05/31 08:23:54;;;;;;;2.65;1.67;;;;;;;;;;5063596;28;20474;-72
2022/05/31 08:26:20;;;;;;;4.20;2.00;;;;;;;;;;5066681;28;20517;-71
2022/05/31 08:28:45;;;;;;;3.63;2.28;;;;;;;;;;5064906;28;20083;-71
2022/05/31 08:31:12;;;;;;;2.83;1.50;;;;;;;;;;5064238;28;20029;-73
2022/05/31 08:33:39;;;;;;;3.75;1.55;;;;;;;;;;5066596;28;20269;-72
2022/05/31 08:36:05;;;;;;;2.63;1.48;;;;;;;;;;5048493;28;20116;-71
2022/05/31 08:38:31;;;;;;;2.00;1.80;;;;;;;;;;5063049;28;20162;-72
2022/05/31 08:41:18;;;;;;;4.45;2.33;;;;;;;;;;5065061;28;20028;-73
2022/05/31 08:43:46;;;;;;;2.90;1.70;;;;;;;;;;5066573;28;20036;-72
2022/05/31 08:46:40;;;;;;;1.80;1.38;;;;;;;;;;5065882;28;20041;-72
2022/05/31 08:52:27;;;;;;;1.67;1.13;;;;;;;;;;5063779;28;20604;-75
2022/05/31 08:57:49;;;;;;;;;;;;;;;;;;5065356;28;20493;-75
2022/05/31 09:00:22;;;;;;;2.03;1.48;;;;;;;;;;5062914;28;19916;-75
2022/05/31 09:03:09;;;;;;;2.17;1.38;;;;;;;;;;5065867;28;20024;-75
2022/05/31 09:05:40;;;;;;;1.65;1.50;;;;;;;;;;5065660;28;20028;-72
2022/05/31 09:08:14;;;;;;;2.38;1.20;;;;;;;;;;5062231;28;20044;-73
2022/05/31 09:10:45;;;;;;;3.15;1.23;;;;;;;;;;5064986;28;20111;-73
2022/05/31 09:13:30;;;;;;;2.40;1.20;;;;;;;;;;5058822;28;20028;-73
2022/05/31 09:16:11;;;;;;;2.40;1.10;;;;;;;;;;5063503;28;20040;-76
2022/05/31 09:18:53;;;;;;;1.85;1.10;;;;;;;;;;5063985;28;20033;-71
2022/05/31 09:21:27;;;;;;;3.53;1.20;;;;;;;;;;5051915;28;20029;-73
2022/05/31 09:23:55;;;;;;;2.00;1.10;;;;;;;;;;5060860;28;20062;-72
2022/05/31 09:26:40;;;;;;;1.95;1.20;;;;;;;;;;5059964;28;20430;-72
2022/05/31 09:29:25;;;;;;;3.90;1.50;;;;;;;;;;5036236;28;20552;-72
2022/05/31 09:32:05;;;;;;;3.15;1.40;;;;;;;;;;5062910;28;20509;-74
2022/05/31 09:35:06;;;;;;;4.70;1.35;;;;;;;;;;5064867;28;20481;-72
2022/05/31 09:37:48;;;;;;;5.80;1.40;;;;;;;;;;5061255;28;20028;-71
2022/05/31 09:40:38;;;;;;;3.88;1.20;;;;;;;;;;5055493;28;20124;-72
2022/05/31 09:43:58;;;;;;;2.22;1.38;;;;;;;;;;5065631;28;20324;-76
2022/05/31 09:46:39;;;;;;;2.38;1.35;;;;;;;;;;5019633;28;20034;-73
2022/05/31 09:49:16;;;;;;;2.50;1.40;;;;;;;;;;5039994;28;20491;-71
2022/05/31 09:51:43;;;;;;;2.72;1.50;;;;;;;;;;5061970;28;20133;-72
2022/05/31 09:57:06;;;;;;;3.90;1.90;;;;;;;;;;5061400;28;20036;-72
2022/05/31 09:59:42;;;;;;;2.50;1.30;;;;;;;;;;5061019;28;20060;-76
2022/05/31 10:02:30;;;;;;;2.00;1.38;;;;;;;;;;5037761;28;20028;-70
2022/05/31 10:05:10;;;;;;;2.03;1.30;;;;;;;;;;5064544;28;20060;-69
2022/05/31 10:07:37;;;;;;;1.88;1.20;;;;;;;;;;5064636;28;20099;-71
2022/05/31 10:10:07;;;;;;;1.63;1.20;;;;;;;;;;5061524;28;20028;-69
2022/05/31 10:12:34;;;;;;;4.90;1.52;;;;;;;;;;5067692;28;20020;-70
2022/05/31 10:15:03;;;;;;;1.58;1.40;;;;;;;;;;5067564;28;20071;-74
2022/05/31 10:17:48;;;;;;;1.63;1.20;;;;;;;;;;5058172;28;20191;-72
2022/05/31 10:20:25;;;;;;;1.83;1.40;;;;;;;;;;5047776;28;20029;-75
2022/05/31 10:23:15;;;;;;;2.83;1.40;;;;;;;;;;5048098;28;20036;-72
2022/05/31 10:25:56;;;;;;;2.13;1.40;;;;;;;;;;5047936;28;20104;-69
2022/05/31 10:28:40;;;;;;;2.50;1.30;;;;;;;;;;5062152;28;20029;-69
2022/05/31 10:31:27;;;;;;;1.83;1.38;;;;;;;;;;5056611;28;20541;-71
2022/05/31 10:33:58;;;;;;;2.00;1.40;;;;;;;;;;5064976;28;20099;-70
2022/05/31 10:36:26;;;;;;;1.83;1.33;;;;;;;;;;5066720;28;20036;-71
2022/05/31 10:38:53;;;;;;;2.22;1.30;;;;;;;;;;5066897;28;20401;-71
2022/05/31 10:41:23;;;;;;;4.28;1.20;;;;;;;;;;5065985;28;20494;-73
2022/05/31 10:43:59;;;;;;;1.75;1.20;;;;;;;;;;5064557;28;20047;-72
2022/05/31 10:46:29;;;;;;;2.28;1.10;;;;;;;;;;5067556;28;20031;-71
2022/05/31 10:48:58;;;;;;;2.70;1.10;;;;;;;;;;5067560;28;20074;-72
2022/05/31 10:51:34;;;;;;;1.20;1.05;;;;;;;;;;5066836;28;20434;-72
2022/05/31 10:54:10;;;;;;;2.25;1.17;;;;;;;;;;5067779;28;20084;-72
2022/05/31 10:56:53;;;;;;;5.97;1.70;;;;;;;;;;5067893;28;20029;-71
2022/05/31 10:59:35;;;;;;;1.95;1.20;;;;;;;;;;5066648;28;20462;-71
2022/05/31 11:02:40;;;;;;;1.40;1.00;;;;;;;;;;5067880;28;20032;-71
2022/05/31 11:05:15;;;;;;;3.53;1.20;;;;;;;;;;5066645;28;20029;-72
2022/05/31 11:13:52;;;;;;;2.50;1.30;;;;;;;;;;5065980;28;20500;-74
2022/05/31 11:16:30;;;;;;;1.35;1.10;;;;;;;;;;5060824;28;20056;-72
2022/05/31 11:19:16;;;;;;;1.02;0.90;;;;;;;;;;5067579;28;20033;-73
2022/05/31 11:22:12;;;;;;;2.85;1.00;;;;;;;;;;5069217;28;20034;-73
2022/05/31 11:24:43;;;;;;;2.33;1.20;;;;;;;;;;5069703;28;20136;-72
2022/05/31 11:27:27;;;;;;;1.48;1.00;;;;;;;;;;5064855;28;20425;-71
2022/05/31 11:30:23;;;;;;;3.55;1.20;;;;;;;;;;5067241;28;20056;-75
2022/05/31 11:32:54;;;;;;;2.53;1.30;;;;;;;;;;5071764;28;20042;-76
2022/05/31 11:35:52;;;;;;;3.50;1.20;;;;;;;;;;5070126;28;20037;-74
2022/05/31 11:38:30;;;;;;;2.53;1.42;;;;;;;;;;5040932;28;20067;-77
2022/05/31 11:41:08;;;;;;;2.25;1.48;;;;;;;;;;5066795;28;20028;-75
2022/05/31 11:43:41;;;;;;;2.33;1.40;;;;;;;;;;5062903;28;20025;-73
2022/05/31 11:46:19;;;;;;;1.85;1.63;;;;;;;;;;5061577;28;20047;-74
2022/05/31 11:49:08;;;;;;;2.17;1.33;;;;;;;;;;5070232;28;20179;-76
2022/05/31 11:51:53;;;;;;;2.00;1.58;;;;;;;;;;5070602;28;20485;-74
2022/05/31 11:54:41;;;;;;;2.38;1.33;;;;;;;;;;5071176;28;20029;-74
2022/05/31 11:57:14;;;;;;;1.48;1.20;;;;;;;;;;5069107;28;20554;-74
2022/05/31 12:00:04;;;;;;;3.67;1.52;;;;;;;;;;5068515;28;20032;-77
2022/05/31 12:02:37;;;;;;;1.50;1.40;;;;;;;;;;5072556;28;20087;-78
2022/05/31 12:05:25;;;;;;;2.53;1.40;;;;;;;;;;5072503;28;20039;-80
2022/05/31 12:08:10;;;;;;;2.58;1.25;;;;;;;;;;5075945;28;20028;-77
2022/05/31 12:10:41;;;;;;;4.88;1.35;;;;;;;;;;5076421;28;20044;-78
2022/05/31 12:13:10;;;;;;;3.27;1.50;;;;;;;;;;5073211;28;20053;-79
2022/05/31 12:15:39;;;;;;;2.05;1.48;;;;;;;;;;5073050;28;20035;-76
2022/05/31 12:18:20;;;;;;;1.50;1.40;;;;;;;;;;5074639;28;20024;-78
2022/05/31 12:21:01;;;;;;;2.05;1.20;;;;;;;;;;5075826;28;20509;-76
2022/05/31 12:23:57;;;;;;;3.05;1.25;;;;;;;;;;5073093;28;20073;-75
2022/05/31 12:26:36;;;;;;;1.40;1.20;;;;;;;;;;5066872;28;20032;-76
2022/05/31 12:29:04;;;;;;;1.27;1.02;;;;;;;;;;5074373;28;20025;-76
2022/05/31 12:31:32;;;;;;;2.35;1.50;;;;;;;;;;5073597;28;21282;-78
2022/05/31 12:34:19;;;;;;;6.30;1.25;;;;;;;;;;5064097;28;20025;-75
2022/05/31 12:37:06;;;;;;;3.00;1.30;;;;;;;;;;5071031;28;20021;-76
2022/05/31 12:39:34;;;;;;;1.40;1.20;;;;;;;;;;5071551;28;20052;-78
2022/05/31 12:42:14;;;;;;;3.20;1.25;;;;;;;;;;5071721;28;20016;-78
2022/05/31 12:44:42;;;;;;;5.25;1.40;;;;;;;;;;5072037;28;20039;-76
2022/05/31 12:47:28;;;;;;;2.15;1.00;;;;;;;;;;5066818;28;20035;-77
2022/05/31 12:49:55;;;;;;;2.60;1.27;;;;;;;;;;5060963;28;20031;-77
2022/05/31 12:54:50;;;;;;;1.58;1.10;;;;;;;;;;5071426;28;20524;-79
2022/05/31 13:00:33;;;;;;;2.55;1.20;;;;;;;;;;5072120;28;20039;-74
2022/05/31 13:03:00;;;;;;;2.37;0.93;;;;;;;;;;5069852;28;20119;-78
2022/05/31 13:05:32;;;;;;;1.50;1.17;;;;;;;;;;5069731;28;20024;-75
2022/05/31 13:08:18;;;;;;;1.10;1.00;;;;;;;;;;5068171;28;20035;-76
2022/05/31 13:19:34;;;;;;;1.27;1.05;;;;;;;;;;5061962;28;20096;-73
2022/05/31 13:22:03;;;;;;;3.42;2.33;;;;;;;;;;5069831;28;20478;-73
2022/05/31 13:24:30;;;;;;;2.75;1.20;;;;;;;;;;5069620;28;20111;-76
2022/05/31 13:26:58;;;;;;;2.25;1.08;;;;;;;;;;5069738;28;20032;-76
2022/05/31 13:29:23;;;;;;;1.98;1.10;;;;;;;;;;5068671;28;20028;-74
2022/05/31 13:32:00;;;;;;;1.40;1.30;;;;;;;;;;5066032;28;20021;-75
2022/05/31 13:34:39;;;;;;;1.83;1.20;;;;;;;;;;5068892;28;20035;-75
2022/05/31 13:37:19;;;;;;;1.48;0.90;;;;;;;;;;5068627;28;20484;-75
2022/05/31 13:39:47;;;;;;;1.85;1.10;;;;;;;;;;5068703;28;20029;-78
2022/05/31 13:42:30;;;;;;;2.95;1.27;;;;;;;;;;5051702;28;20115;-76
2022/05/31 13:45:01;;;;;;;3.08;1.58;;;;;;;;;;5069151;28;20059;-74
2022/05/31 13:47:28;;;;;;;2.08;1.00;;;;;;;;;;5068756;28;20442;-73
2022/05/31 13:50:05;;;;;;;1.65;1.20;;;;;;;;;;5067922;28;20055;-75
2022/05/31 13:52:31;;;;;;;2.05;1.20;;;;;;;;;;5068463;28;20123;-75
2022/05/31 13:55:11;;;;;;;2.40;1.25;;;;;;;;;;5069071;28;20099;-75
2022/05/31 13:57:36;;;;;;;2.00;0.88;;;;;;;;;;5069235;28;20025;-78
2022/05/31 14:00:07;;;;;;;2.40;1.10;;;;;;;;;;5067715;28;20028;-75
2022/05/31 14:02:52;;;;;;;2.13;0.90;;;;;;;;;;5068486;28;20042;-75
2022/05/31 14:05:24;;;;;;;3.10;1.30;;;;;;;;;;5063898;28;20561;-76
2022/05/31 14:07:50;;;;;;;1.27;0.90;;;;;;;;;;5069034;28;20585;-76
2022/05/31 14:10:20;;;;;;;3.22;0.95;;;;;;;;;;5067297;28;20036;-75
2022/05/31 14:12:45;;;;;;;1.30;0.80;;;;;;;;;;5068172;28;20051;-76
2022/05/31 14:15:27;;;;;;;1.52;1.00;;;;;;;;;;5067503;28;20032;-77
2022/05/31 14:18:04;;;;;;;1.40;1.00;;;;;;;;;;5070943;28;20055;-77
2022/05/31 14:20:35;;;;;;;2.28;0.80;;;;;;;;;;5066373;28;20054;-77
2022/05/31 14:23:07;;;;;;;2.90;0.93;;;;;;;;;;5068023;28;20599;-77
2022/05/31 14:25:32;;;;;;;;;;;;;;;;;;5069430;28;20032;-76
2022/05/31 14:27:58;;;;;;;3.47;1.00;;;;;;;;;;5067912;28;19915;-76
2022/05/31 14:30:29;;;;;;;1.77;1.00;;;;;;;;;;5068813;28;20024;-76
2022/05/31 14:33:02;;;;;;;1.00;0.90;;;;;;;;;;5066263;28;20522;-73
2022/05/31 14:35:41;;;;;;;2.22;1.30;;;;;;;;;;5068139;28;20119;-76
2022/05/31 14:38:13;;;;;;;0.93;0.82;;;;;;;;;;5066999;28;20032;-77
2022/05/31 14:40:40;;;;;;;0.80;0.80;;;;;;;;;;5068242;28;20636;-76
2022/05/31 14:43:14;;;;;;;1.45;0.90;;;;;;;;;;5067359;28;20635;-74
2022/05/31 14:45:44;;;;;;;1.70;1.00;;;;;;;;;;5068106;28;20489;-75
2022/05/31 14:48:40;;;;;;;3.28;0.90;;;;;;;;;;5067236;28;20151;-76
2022/05/31 14:51:16;;;;;;;1.67;0.75;;;;;;;;;;5067898;28;20024;-76
2022/05/31 14:53:44;;;;;;;1.40;0.63;;;;;;;;;;5063975;28;20028;-77
2022/05/31 14:56:38;;;;;;;1.02;0.70;;;;;;;;;;5071208;28;20130;-75
2022/05/31 14:59:08;;;;;;;1.35;1.00;;;;;;;;;;5072351;28;20028;-74
2022/05/31 15:01:46;;;;;;;4.90;1.00;;;;;;;;;;5071678;28;20055;-76
2022/05/31 15:04:14;;;;;;;2.25;1.00;;;;;;;;;;5071436;28;20032;-73
2022/05/31 15:06:41;;;;;;;1.98;0.90;;;;;;;;;;5070609;28;20123;-73
2022/05/31 15:09:19;;;;;;;0.95;0.90;;;;;;;;;;5062936;28;20040;-77
2022/05/31 15:20:09;;;;;;;1.83;1.00;;;;;;;;;;5069445;28;20505;-76
2022/05/31 15:22:35;;;;;;;0.85;0.80;;;;;;;;;;5070931;28;20032;-74
2022/05/31 15:25:00;;;;;;;2.13;0.80;;;;;;;;;;5071157;28;20071;-71
2022/05/31 15:27:30;;;;;;;0.80;0.80;;;;;;;;;;5070943;28;20054;-73
2022/05/31 15:29:56;;;;;;;0.70;0.70;;;;;;;;;;5071282;28;20032;-76
2022/05/31 15:32:23;;;;;;;1.67;1.00;;;;;;;;;;5071591;28;20024;-76
2022/05/31 15:34:49;;;;;;;1.40;1.00;;;;;;;;;;5071440;28;20021;-73
2022/05/31 15:37:17;;;;;;;2.72;0.82;;;;;;;;;;5068762;28;20067;-75
2022/05/31 15:39:44;;;;;;;2.40;0.80;;;;;;;;;;5070819;28;20028;-75
2022/05/31 15:42:12;;;;;;;0.90;0.90;;;;;;;;;;5070745;28;20055;-74
2022/05/31 15:44:37;;;;;;;1.45;0.80;;;;;;;;;;5070278;28;20056;-75
2022/05/31 15:47:04;;;;;;;1.27;0.80;;;;;;;;;;5070556;28;20047;-75
2022/05/31 15:49:31;;;;;;;1.40;0.80;;;;;;;;;;5070952;28;20498;-79
2022/05/31 15:51:58;;;;;;;1.45;1.00;;;;;;;;;;5070647;28;20043;-75
2022/05/31 15:54:29;;;;;;;1.27;0.98;;;;;;;;;;5070310;28;20028;-75